sensor_id;sensor_type;location;lat;lon;timestamp;temperature;humidity
21787;DHT22;11055;50.870;4.316;2023-07-30T00:01:39;18.30;99.90
21787;DHT22;11055;50.870;4.316;2023-07-30T00:04:05;18.50;99.90
21787;DHT22;11055;50.870;4.316;2023-07-30T00:06:30;18.60;99.90
21787;DHT22;11055;50.870;4.316;2023-07-30T00:08:56;18.60;99.90
21787;DHT22;11055;50.870;4.316;2023-07-30T00:11:22;18.70;99.90
21787;DHT22;11055;50.870;4.316;2023-07-30T00:13:47;18.90;99.90
21787;DHT22;11055;50.870;4.316;2023-07-30T00:16:13;19.10;99.90
21787;DHT22;11055;50.870;4.316;2023-07-30T00:18:39;19.30;99.90
21787;DHT22;11055;50.870;4.316;2023-07-30T00:21:05;19.40;99.90
21787;DHT22;11055;50.870;4.316;2023-07-30T00:23:30;19.40;99.90
21787;DHT22;11055;50.870;4.316;2023-07-30T00:25:56;19.40;99.90
21787;DHT22;11055;50.870;4.316;2023-07-30T00:28:21;19.50;99.90
21787;DHT22;11055;50.870;4.316;2023-07-30T00:30:47;19.50;99.90
21787;DHT22;11055;50.870;4.316;2023-07-30T00:33:13;19.50;99.90
21787;DHT22;11055;50.870;4.316;2023-07-30T00:35:38;19.30;99.90
21787;DHT22;11055;50.870;4.316;2023-07-30T00:38:04;18.80;99.90
21787;DHT22;11055;50.870;4.316;2023-07-30T00:40:30;18.60;99.90
21787;DHT22;11055;50.870;4.316;2023-07-30T00:42:55;18.40;99.90
21787;DHT22;11055;50.870;4.316;2023-07-30T00:45:21;18.20;99.90
21787;DHT22;11055;50.870;4.316;2023-07-30T00:47:47;17.90;99.90
21787;DHT22;11055;50.870;4.316;2023-07-30T00:50:14;17.80;99.90
21787;DHT22;11055;50.870;4.316;2023-07-30T00:52:40;17.80;99.90
21787;DHT22;11055;50.870;4.316;2023-07-30T00:55:07;17.80;99.90
21787;DHT22;11055;50.870;4.316;2023-07-30T00:57:34;17.70;99.90
21787;DHT22;11055;50.870;4.316;2023-07-30T01:00:01;17.70;99.90
21787;DHT22;11055;50.870;4.316;2023-07-30T01:02:30;17.70;99.90
21787;DHT22;11055;50.870;4.316;2023-07-30T01:04:57;17.70;99.90
21787;DHT22;11055;50.870;4.316;2023-07-30T01:07:22;17.90;99.90
21787;DHT22;11055;50.870;4.316;2023-07-30T01:09:48;17.90;99.90
21787;DHT22;11055;50.870;4.316;2023-07-30T01:12:14;17.90;99.90
21787;DHT22;11055;50.870;4.316;2023-07-30T01:14:40;18.00;99.90
21787;DHT22;11055;50.870;4.316;2023-07-30T01:17:06;18.10;99.90
21787;DHT22;11055;50.870;4.316;2023-07-30T01:19:31;18.20;99.90
21787;DHT22;11055;50.870;4.316;2023-07-30T01:21:58;18.40;99.90
21787;DHT22;11055;50.870;4.316;2023-07-30T01:24:23;18.40;99.90
21787;DHT22;11055;50.870;4.316;2023-07-30T01:26:55;18.30;99.90
21787;DHT22;11055;50.870;4.316;2023-07-30T01:29:35;18.20;99.90
21787;DHT22;11055;50.870;4.316;2023-07-30T01:32:06;18.20;99.90
21787;DHT22;11055;50.870;4.316;2023-07-30T01:34:34;18.40;99.90
21787;DHT22;11055;50.870;4.316;2023-07-30T01:37:01;18.50;99.90
21787;DHT22;11055;50.870;4.316;2023-07-30T01:39:27;18.70;99.90
21787;DHT22;11055;50.870;4.316;2023-07-30T01:41:54;18.60;99.90
21787;DHT22;11055;50.870;4.316;2023-07-30T01:44:20;18.60;99.90
21787;DHT22;11055;50.870;4.316;2023-07-30T01:46:46;18.70;99.90
21787;DHT22;11055;50.870;4.316;2023-07-30T01:49:11;18.70;99.90
21787;DHT22;11055;50.870;4.316;2023-07-30T01:51:37;18.70;99.90
21787;DHT22;11055;50.870;4.316;2023-07-30T01:54:03;18.70;99.90
21787;DHT22;11055;50.870;4.316;2023-07-30T01:56:28;18.70;99.90
21787;DHT22;11055;50.870;4.316;2023-07-30T01:58:54;18.70;99.90
21787;DHT22;11055;50.870;4.316;2023-07-30T02:01:19;18.80;99.90
21787;DHT22;11055;50.870;4.316;2023-07-30T02:03:45;18.90;99.90
21787;DHT22;11055;50.870;4.316;2023-07-30T02:06:11;18.90;99.90
21787;DHT22;11055;50.870;4.316;2023-07-30T02:08:37;19.00;99.90
21787;DHT22;11055;50.870;4.316;2023-07-30T02:11:03;19.00;99.90
21787;DHT22;11055;50.870;4.316;2023-07-30T02:13:29;18.80;99.90
21787;DHT22;11055;50.870;4.316;2023-07-30T02:15:54;18.80;99.90
21787;DHT22;11055;50.870;4.316;2023-07-30T02:18:20;18.80;99.90
21787;DHT22;11055;50.870;4.316;2023-07-30T02:20:46;18.80;99.90
21787;DHT22;11055;50.870;4.316;2023-07-30T02:23:15;18.80;99.90
21787;DHT22;11055;50.870;4.316;2023-07-30T02:25:43;18.90;99.90
21787;DHT22;11055;50.870;4.316;2023-07-30T02:28:09;19.00;99.90
21787;DHT22;11055;50.870;4.316;2023-07-30T02:30:35;19.10;99.90
21787;DHT22;11055;50.870;4.316;2023-07-30T02:33:01;19.10;99.90
21787;DHT22;11055;50.870;4.316;2023-07-30T02:35:26;19.00;99.90
21787;DHT22;11055;50.870;4.316;2023-07-30T02:37:52;18.70;99.90
21787;DHT22;11055;50.870;4.316;2023-07-30T02:40:18;18.60;99.90
21787;DHT22;11055;50.870;4.316;2023-07-30T02:42:43;18.60;99.90
21787;DHT22;11055;50.870;4.316;2023-07-30T02:45:09;18.60;99.90
21787;DHT22;11055;50.870;4.316;2023-07-30T02:47:35;18.40;99.90
21787;DHT22;11055;50.870;4.316;2023-07-30T02:50:03;18.30;99.90
21787;DHT22;11055;50.870;4.316;2023-07-30T02:52:28;18.10;99.90
21787;DHT22;11055;50.870;4.316;2023-07-30T02:54:54;17.90;99.90
21787;DHT22;11055;50.870;4.316;2023-07-30T02:57:20;17.90;99.90
21787;DHT22;11055;50.870;4.316;2023-07-30T02:59:45;18.00;99.90
21787;DHT22;11055;50.870;4.316;2023-07-30T03:02:11;18.00;99.90
21787;DHT22;11055;50.870;4.316;2023-07-30T03:04:37;18.00;99.90
21787;DHT22;11055;50.870;4.316;2023-07-30T03:07:04;17.90;99.90
21787;DHT22;11055;50.870;4.316;2023-07-30T03:09:29;18.00;99.90
21787;DHT22;11055;50.870;4.316;2023-07-30T03:11:55;18.00;99.90
21787;DHT22;11055;50.870;4.316;2023-07-30T03:14:21;18.00;99.90
21787;DHT22;11055;50.870;4.316;2023-07-30T03:16:47;17.90;99.90
21787;DHT22;11055;50.870;4.316;2023-07-30T03:19:13;17.90;99.90
21787;DHT22;11055;50.870;4.316;2023-07-30T03:21:39;18.00;99.90
21787;DHT22;11055;50.870;4.316;2023-07-30T03:24:04;18.10;99.90
21787;DHT22;11055;50.870;4.316;2023-07-30T03:26:30;18.20;99.90
21787;DHT22;11055;50.870;4.316;2023-07-30T03:28:56;18.40;99.90
21787;DHT22;11055;50.870;4.316;2023-07-30T03:31:21;18.50;99.90
21787;DHT22;11055;50.870;4.316;2023-07-30T03:33:47;18.50;99.90
21787;DHT22;11055;50.870;4.316;2023-07-30T03:36:13;18.60;99.90
21787;DHT22;11055;50.870;4.316;2023-07-30T03:38:40;18.60;99.90
21787;DHT22;11055;50.870;4.316;2023-07-30T03:41:06;18.60;99.90
21787;DHT22;11055;50.870;4.316;2023-07-30T03:43:35;18.60;99.90
21787;DHT22;11055;50.870;4.316;2023-07-30T03:46:01;18.40;99.90
21787;DHT22;11055;50.870;4.316;2023-07-30T03:48:30;18.30;99.90
21787;DHT22;11055;50.870;4.316;2023-07-30T03:50:56;18.30;99.90
21787;DHT22;11055;50.870;4.316;2023-07-30T03:53:22;18.30;99.90
21787;DHT22;11055;50.870;4.316;2023-07-30T03:55:47;18.20;99.90
21787;DHT22;11055;50.870;4.316;2023-07-30T03:58:13;18.10;99.90
21787;DHT22;11055;50.870;4.316;2023-07-30T04:00:39;18.20;99.90
21787;DHT22;11055;50.870;4.316;2023-07-30T04:03:05;18.20;99.90
21787;DHT22;11055;50.870;4.316;2023-07-30T04:05:31;18.10;99.90
21787;DHT22;11055;50.870;4.316;2023-07-30T04:07:57;18.00;99.90
21787;DHT22;11055;50.870;4.316;2023-07-30T04:10:23;18.10;99.90
21787;DHT22;11055;50.870;4.316;2023-07-30T04:12:48;18.00;99.90
21787;DHT22;11055;50.870;4.316;2023-07-30T04:15:17;18.10;99.90
21787;DHT22;11055;50.870;4.316;2023-07-30T04:17:43;18.20;99.90
21787;DHT22;11055;50.870;4.316;2023-07-30T04:20:09;18.30;99.90
21787;DHT22;11055;50.870;4.316;2023-07-30T04:22:36;18.20;99.90
21787;DHT22;11055;50.870;4.316;2023-07-30T04:25:02;18.20;99.90
21787;DHT22;11055;50.870;4.316;2023-07-30T04:27:28;18.10;99.90
21787;DHT22;11055;50.870;4.316;2023-07-30T04:29:53;17.90;99.90
21787;DHT22;11055;50.870;4.316;2023-07-30T04:32:19;17.90;99.90
21787;DHT22;11055;50.870;4.316;2023-07-30T04:34:44;17.90;99.90
21787;DHT22;11055;50.870;4.316;2023-07-30T04:37:10;17.90;99.90
21787;DHT22;11055;50.870;4.316;2023-07-30T04:39:36;17.90;99.90
21787;DHT22;11055;50.870;4.316;2023-07-30T04:42:02;17.80;99.90
21787;DHT22;11055;50.870;4.316;2023-07-30T04:44:28;17.70;99.90
21787;DHT22;11055;50.870;4.316;2023-07-30T04:46:54;17.70;99.90
21787;DHT22;11055;50.870;4.316;2023-07-30T04:49:19;17.80;99.90
21787;DHT22;11055;50.870;4.316;2023-07-30T04:51:45;17.80;99.90
21787;DHT22;11055;50.870;4.316;2023-07-30T04:54:11;17.70;99.90
21787;DHT22;11055;50.870;4.316;2023-07-30T04:56:37;17.70;99.90
21787;DHT22;11055;50.870;4.316;2023-07-30T04:59:02;17.60;99.90
21787;DHT22;11055;50.870;4.316;2023-07-30T05:01:28;17.50;99.90
21787;DHT22;11055;50.870;4.316;2023-07-30T05:03:54;17.50;99.90
21787;DHT22;11055;50.870;4.316;2023-07-30T05:06:20;17.50;99.90
21787;DHT22;11055;50.870;4.316;2023-07-30T05:08:46;17.60;99.90
21787;DHT22;11055;50.870;4.316;2023-07-30T05:11:11;17.60;99.90
21787;DHT22;11055;50.870;4.316;2023-07-30T05:13:37;17.60;99.90
21787;DHT22;11055;50.870;4.316;2023-07-30T05:16:03;17.60;99.90
21787;DHT22;11055;50.870;4.316;2023-07-30T05:18:28;17.60;99.90
21787;DHT22;11055;50.870;4.316;2023-07-30T05:20:55;17.60;99.90
21787;DHT22;11055;50.870;4.316;2023-07-30T05:23:20;17.60;99.90
21787;DHT22;11055;50.870;4.316;2023-07-30T05:25:46;17.60;99.90
21787;DHT22;11055;50.870;4.316;2023-07-30T05:28:12;17.80;99.90
21787;DHT22;11055;50.870;4.316;2023-07-30T05:30:38;17.90;99.90
21787;DHT22;11055;50.870;4.316;2023-07-30T05:33:04;18.00;99.90
21787;DHT22;11055;50.870;4.316;2023-07-30T05:35:29;17.80;99.90
21787;DHT22;11055;50.870;4.316;2023-07-30T05:37:55;17.80;99.90
21787;DHT22;11055;50.870;4.316;2023-07-30T05:40:21;17.70;99.90
21787;DHT22;11055;50.870;4.316;2023-07-30T05:42:47;17.60;99.90
21787;DHT22;11055;50.870;4.316;2023-07-30T05:45:12;17.70;99.90
21787;DHT22;11055;50.870;4.316;2023-07-30T05:47:38;17.70;99.90
21787;DHT22;11055;50.870;4.316;2023-07-30T05:50:04;17.60;99.90
21787;DHT22;11055;50.870;4.316;2023-07-30T05:52:30;17.40;99.90
21787;DHT22;11055;50.870;4.316;2023-07-30T05:54:56;17.50;99.90
21787;DHT22;11055;50.870;4.316;2023-07-30T05:57:22;17.50;99.90
21787;DHT22;11055;50.870;4.316;2023-07-30T05:59:47;17.50;99.90
21787;DHT22;11055;50.870;4.316;2023-07-30T06:02:13;17.40;99.90
21787;DHT22;11055;50.870;4.316;2023-07-30T06:04:38;17.30;99.90
21787;DHT22;11055;50.870;4.316;2023-07-30T06:07:04;17.40;99.90
21787;DHT22;11055;50.870;4.316;2023-07-30T06:09:30;17.40;99.90
21787;DHT22;11055;50.870;4.316;2023-07-30T06:11:57;17.50;99.90
21787;DHT22;11055;50.870;4.316;2023-07-30T06:14:26;17.70;99.90
21787;DHT22;11055;50.870;4.316;2023-07-30T06:16:53;17.70;99.90
21787;DHT22;11055;50.870;4.316;2023-07-30T06:19:19;17.50;99.90
21787;DHT22;11055;50.870;4.316;2023-07-30T06:21:45;17.50;99.90
21787;DHT22;11055;50.870;4.316;2023-07-30T06:24:11;17.50;99.90
21787;DHT22;11055;50.870;4.316;2023-07-30T06:26:36;17.50;99.90
21787;DHT22;11055;50.870;4.316;2023-07-30T06:29:02;17.50;99.90
21787;DHT22;11055;50.870;4.316;2023-07-30T06:31:28;17.50;99.90
21787;DHT22;11055;50.870;4.316;2023-07-30T06:33:54;17.40;99.90
21787;DHT22;11055;50.870;4.316;2023-07-30T06:36:19;17.50;99.90
21787;DHT22;11055;50.870;4.316;2023-07-30T06:38:45;17.60;99.90
21787;DHT22;11055;50.870;4.316;2023-07-30T06:41:10;17.60;99.90
21787;DHT22;11055;50.870;4.316;2023-07-30T06:43:36;17.60;99.90
21787;DHT22;11055;50.870;4.316;2023-07-30T06:46:02;17.40;99.90
21787;DHT22;11055;50.870;4.316;2023-07-30T06:48:27;17.40;99.90
21787;DHT22;11055;50.870;4.316;2023-07-30T06:50:53;17.50;99.90
21787;DHT22;11055;50.870;4.316;2023-07-30T06:53:19;17.40;99.90
21787;DHT22;11055;50.870;4.316;2023-07-30T06:55:44;17.40;99.90
21787;DHT22;11055;50.870;4.316;2023-07-30T06:58:10;17.40;99.90
21787;DHT22;11055;50.870;4.316;2023-07-30T07:00:36;17.40;99.90
21787;DHT22;11055;50.870;4.316;2023-07-30T07:03:02;17.50;99.90
21787;DHT22;11055;50.870;4.316;2023-07-30T07:05:27;17.50;99.90
21787;DHT22;11055;50.870;4.316;2023-07-30T07:07:53;17.50;99.90
21787;DHT22;11055;50.870;4.316;2023-07-30T07:10:19;17.60;99.90
21787;DHT22;11055;50.870;4.316;2023-07-30T07:12:44;17.60;99.90
21787;DHT22;11055;50.870;4.316;2023-07-30T07:15:10;17.60;99.90
21787;DHT22;11055;50.870;4.316;2023-07-30T07:17:36;17.70;99.90
21787;DHT22;11055;50.870;4.316;2023-07-30T07:20:01;17.80;99.90
21787;DHT22;11055;50.870;4.316;2023-07-30T07:22:30;17.90;99.90
21787;DHT22;11055;50.870;4.316;2023-07-30T07:24:55;18.00;99.90
21787;DHT22;11055;50.870;4.316;2023-07-30T07:27:21;18.10;99.90
21787;DHT22;11055;50.870;4.316;2023-07-30T07:29:50;18.10;99.90
21787;DHT22;11055;50.870;4.316;2023-07-30T07:32:16;18.20;99.90
21787;DHT22;11055;50.870;4.316;2023-07-30T07:34:45;18.00;99.90
21787;DHT22;11055;50.870;4.316;2023-07-30T07:37:12;18.00;99.90
21787;DHT22;11055;50.870;4.316;2023-07-30T07:39:43;18.10;99.90
21787;DHT22;11055;50.870;4.316;2023-07-30T07:42:09;18.00;99.90
21787;DHT22;11055;50.870;4.316;2023-07-30T07:44:35;18.10;99.90
21787;DHT22;11055;50.870;4.316;2023-07-30T07:47:01;18.10;99.90
21787;DHT22;11055;50.870;4.316;2023-07-30T07:49:27;18.10;99.90
21787;DHT22;11055;50.870;4.316;2023-07-30T07:51:52;18.20;99.90
21787;DHT22;11055;50.870;4.316;2023-07-30T07:54:18;18.10;99.90
21787;DHT22;11055;50.870;4.316;2023-07-30T07:56:44;18.10;99.90
21787;DHT22;11055;50.870;4.316;2023-07-30T07:59:09;18.10;99.90
21787;DHT22;11055;50.870;4.316;2023-07-30T08:01:35;18.30;99.90
21787;DHT22;11055;50.870;4.316;2023-07-30T08:04:01;18.30;99.90
21787;DHT22;11055;50.870;4.316;2023-07-30T08:06:27;18.30;99.90
21787;DHT22;11055;50.870;4.316;2023-07-30T08:08:52;18.40;99.90
21787;DHT22;11055;50.870;4.316;2023-07-30T08:11:18;18.40;99.90
21787;DHT22;11055;50.870;4.316;2023-07-30T08:13:44;18.40;99.90
21787;DHT22;11055;50.870;4.316;2023-07-30T08:16:11;18.40;99.90
21787;DHT22;11055;50.870;4.316;2023-07-30T08:18:37;18.30;99.90
21787;DHT22;11055;50.870;4.316;2023-07-30T08:21:02;18.30;99.90
21787;DHT22;11055;50.870;4.316;2023-07-30T08:23:28;18.30;99.90
21787;DHT22;11055;50.870;4.316;2023-07-30T08:25:54;18.40;99.90
21787;DHT22;11055;50.870;4.316;2023-07-30T08:28:19;18.40;99.90
21787;DHT22;11055;50.870;4.316;2023-07-30T08:30:45;18.40;99.90
21787;DHT22;11055;50.870;4.316;2023-07-30T08:33:11;18.40;99.90
21787;DHT22;11055;50.870;4.316;2023-07-30T08:35:37;18.50;99.90
21787;DHT22;11055;50.870;4.316;2023-07-30T08:38:03;18.60;99.90
21787;DHT22;11055;50.870;4.316;2023-07-30T08:40:28;18.70;99.90
21787;DHT22;11055;50.870;4.316;2023-07-30T08:42:54;18.60;99.90
21787;DHT22;11055;50.870;4.316;2023-07-30T08:45:20;18.60;99.90
21787;DHT22;11055;50.870;4.316;2023-07-30T08:47:47;18.70;99.90
21787;DHT22;11055;50.870;4.316;2023-07-30T08:50:13;18.60;99.90
21787;DHT22;11055;50.870;4.316;2023-07-30T08:52:39;18.60;99.90
21787;DHT22;11055;50.870;4.316;2023-07-30T08:55:05;18.50;99.90
21787;DHT22;11055;50.870;4.316;2023-07-30T08:57:31;18.50;99.90
21787;DHT22;11055;50.870;4.316;2023-07-30T09:00:06;18.40;99.90
21787;DHT22;11055;50.870;4.316;2023-07-30T09:02:52;18.50;99.90
21787;DHT22;11055;50.870;4.316;2023-07-30T09:05:20;18.50;99.90
21787;DHT22;11055;50.870;4.316;2023-07-30T09:07:46;18.40;99.90
21787;DHT22;11055;50.870;4.316;2023-07-30T09:10:12;18.30;99.90
21787;DHT22;11055;50.870;4.316;2023-07-30T09:12:38;18.40;99.90
21787;DHT22;11055;50.870;4.316;2023-07-30T09:15:05;18.50;99.90
21787;DHT22;11055;50.870;4.316;2023-07-30T09:17:32;18.60;99.90
21787;DHT22;11055;50.870;4.316;2023-07-30T09:20:02;18.60;99.90
21787;DHT22;11055;50.870;4.316;2023-07-30T09:22:30;18.70;99.90
21787;DHT22;11055;50.870;4.316;2023-07-30T09:25:01;18.70;99.90
21787;DHT22;11055;50.870;4.316;2023-07-30T09:27:28;18.80;99.90
21787;DHT22;11055;50.870;4.316;2023-07-30T09:29:56;18.90;99.90
21787;DHT22;11055;50.870;4.316;2023-07-30T09:32:33;18.90;99.90
21787;DHT22;11055;50.870;4.316;2023-07-30T09:35:09;18.80;99.90
21787;DHT22;11055;50.870;4.316;2023-07-30T09:37:40;18.80;99.90
21787;DHT22;11055;50.870;4.316;2023-07-30T09:40:11;18.60;99.90
21787;DHT22;11055;50.870;4.316;2023-07-30T09:42:46;18.50;99.90
21787;DHT22;11055;50.870;4.316;2023-07-30T09:45:17;18.50;99.90
21787;DHT22;11055;50.870;4.316;2023-07-30T09:47:51;18.50;99.90
21787;DHT22;11055;50.870;4.316;2023-07-30T09:50:17;18.40;99.90
21787;DHT22;11055;50.870;4.316;2023-07-30T09:52:43;18.20;99.90
21787;DHT22;11055;50.870;4.316;2023-07-30T09:55:09;18.10;99.90
21787;DHT22;11055;50.870;4.316;2023-07-30T09:57:36;17.90;99.90
21787;DHT22;11055;50.870;4.316;2023-07-30T10:00:03;17.60;99.90
21787;DHT22;11055;50.870;4.316;2023-07-30T10:02:31;17.50;99.90
21787;DHT22;11055;50.870;4.316;2023-07-30T10:04:59;17.50;99.90
21787;DHT22;11055;50.870;4.316;2023-07-30T10:07:26;17.60;99.90
21787;DHT22;11055;50.870;4.316;2023-07-30T10:09:57;17.60;99.90
21787;DHT22;11055;50.870;4.316;2023-07-30T10:12:27;17.60;99.90
21787;DHT22;11055;50.870;4.316;2023-07-30T10:14:54;17.70;99.90
21787;DHT22;11055;50.870;4.316;2023-07-30T10:17:19;17.80;99.90
21787;DHT22;11055;50.870;4.316;2023-07-30T10:19:49;18.00;99.90
21787;DHT22;11055;50.870;4.316;2023-07-30T10:25:00;18.50;99.90
21787;DHT22;11055;50.870;4.316;2023-07-30T10:27:39;18.90;99.90
21787;DHT22;11055;50.870;4.316;2023-07-30T10:30:13;19.30;99.90
21787;DHT22;11055;50.870;4.316;2023-07-30T10:32:41;19.60;99.90
21787;DHT22;11055;50.870;4.316;2023-07-30T10:35:07;19.80;99.90
21787;DHT22;11055;50.870;4.316;2023-07-30T10:37:33;19.70;99.90
21787;DHT22;11055;50.870;4.316;2023-07-30T10:39:58;19.70;99.90
21787;DHT22;11055;50.870;4.316;2023-07-30T10:42:33;19.40;99.90
21787;DHT22;11055;50.870;4.316;2023-07-30T10:44:59;19.30;99.90
21787;DHT22;11055;50.870;4.316;2023-07-30T10:47:27;19.30;99.90
21787;DHT22;11055;50.870;4.316;2023-07-30T10:49:53;19.20;99.90
21787;DHT22;11055;50.870;4.316;2023-07-30T10:52:24;19.30;99.90
21787;DHT22;11055;50.870;4.316;2023-07-30T10:55:00;19.40;99.90
21787;DHT22;11055;50.870;4.316;2023-07-30T10:57:32;19.50;99.90
21787;DHT22;11055;50.870;4.316;2023-07-30T10:59:59;19.90;99.90
21787;DHT22;11055;50.870;4.316;2023-07-30T11:02:25;20.20;99.90
21787;DHT22;11055;50.870;4.316;2023-07-30T11:04:50;20.60;99.90
21787;DHT22;11055;50.870;4.316;2023-07-30T11:07:17;20.80;99.90
21787;DHT22;11055;50.870;4.316;2023-07-30T11:09:44;21.00;99.90
21787;DHT22;11055;50.870;4.316;2023-07-30T11:12:10;21.30;99.90
21787;DHT22;11055;50.870;4.316;2023-07-30T11:14:36;21.20;99.90
21787;DHT22;11055;50.870;4.316;2023-07-30T11:17:01;21.10;99.90
21787;DHT22;11055;50.870;4.316;2023-07-30T11:19:28;21.10;99.90
21787;DHT22;11055;50.870;4.316;2023-07-30T11:21:55;21.20;99.90
21787;DHT22;11055;50.870;4.316;2023-07-30T11:24:22;21.20;99.90
21787;DHT22;11055;50.870;4.316;2023-07-30T11:27:00;21.10;99.90
21787;DHT22;11055;50.870;4.316;2023-07-30T11:29:26;21.00;99.90
21787;DHT22;11055;50.870;4.316;2023-07-30T11:31:56;21.10;99.90
21787;DHT22;11055;50.870;4.316;2023-07-30T11:34:22;21.20;99.90
21787;DHT22;11055;50.870;4.316;2023-07-30T11:36:48;21.30;99.90
21787;DHT22;11055;50.870;4.316;2023-07-30T11:39:14;21.60;99.90
21787;DHT22;11055;50.870;4.316;2023-07-30T11:41:40;21.70;99.90
21787;DHT22;11055;50.870;4.316;2023-07-30T11:44:06;21.90;99.90
21787;DHT22;11055;50.870;4.316;2023-07-30T11:46:32;22.10;99.90
21787;DHT22;11055;50.870;4.316;2023-07-30T11:49:15;22.30;99.90
21787;DHT22;11055;50.870;4.316;2023-07-30T11:51:42;22.00;99.90
21787;DHT22;11055;50.870;4.316;2023-07-30T11:54:18;22.20;99.90
21787;DHT22;11055;50.870;4.316;2023-07-30T11:56:44;22.40;99.90
21787;DHT22;11055;50.870;4.316;2023-07-30T11:59:10;22.30;99.90
21787;DHT22;11055;50.870;4.316;2023-07-30T12:01:36;22.20;99.90
21787;DHT22;11055;50.870;4.316;2023-07-30T12:04:04;22.10;99.90
21787;DHT22;11055;50.870;4.316;2023-07-30T12:06:48;22.10;99.90
21787;DHT22;11055;50.870;4.316;2023-07-30T12:14:44;22.40;99.90
21787;DHT22;11055;50.870;4.316;2023-07-30T12:17:10;22.60;99.90
21787;DHT22;11055;50.870;4.316;2023-07-30T12:19:35;22.80;99.90
21787;DHT22;11055;50.870;4.316;2023-07-30T12:22:02;22.60;99.90
21787;DHT22;11055;50.870;4.316;2023-07-30T12:24:27;22.40;99.90
21787;DHT22;11055;50.870;4.316;2023-07-30T12:26:53;22.30;99.90
21787;DHT22;11055;50.870;4.316;2023-07-30T12:29:19;22.60;99.90
21787;DHT22;11055;50.870;4.316;2023-07-30T12:31:44;22.90;99.90
21787;DHT22;11055;50.870;4.316;2023-07-30T12:34:11;22.90;99.90
21787;DHT22;11055;50.870;4.316;2023-07-30T12:36:37;22.60;99.90
21787;DHT22;11055;50.870;4.316;2023-07-30T12:39:03;22.60;99.90
21787;DHT22;11055;50.870;4.316;2023-07-30T12:41:29;22.30;99.90
21787;DHT22;11055;50.870;4.316;2023-07-30T12:43:55;22.20;99.90
21787;DHT22;11055;50.870;4.316;2023-07-30T12:46:23;22.30;99.90
21787;DHT22;11055;50.870;4.316;2023-07-30T12:48:49;22.50;99.90
21787;DHT22;11055;50.870;4.316;2023-07-30T12:51:14;22.70;99.90
21787;DHT22;11055;50.870;4.316;2023-07-30T12:53:40;23.00;99.90
21787;DHT22;11055;50.870;4.316;2023-07-30T12:56:06;23.00;99.90
21787;DHT22;11055;50.870;4.316;2023-07-30T12:58:31;22.90;99.90
21787;DHT22;11055;50.870;4.316;2023-07-30T13:00:57;22.70;99.90
21787;DHT22;11055;50.870;4.316;2023-07-30T13:03:23;22.60;99.90
21787;DHT22;11055;50.870;4.316;2023-07-30T13:05:48;22.60;99.90
21787;DHT22;11055;50.870;4.316;2023-07-30T13:08:14;22.60;99.90
21787;DHT22;11055;50.870;4.316;2023-07-30T13:10:40;22.80;99.90
21787;DHT22;11055;50.870;4.316;2023-07-30T13:13:05;22.80;99.90
21787;DHT22;11055;50.870;4.316;2023-07-30T13:15:31;22.80;99.90
21787;DHT22;11055;50.870;4.316;2023-07-30T13:17:56;22.70;99.90
21787;DHT22;11055;50.870;4.316;2023-07-30T13:20:22;22.50;99.90
21787;DHT22;11055;50.870;4.316;2023-07-30T13:22:50;22.40;99.90
21787;DHT22;11055;50.870;4.316;2023-07-30T13:25:17;22.40;99.90
21787;DHT22;11055;50.870;4.316;2023-07-30T13:27:42;22.30;99.90
21787;DHT22;11055;50.870;4.316;2023-07-30T13:30:08;22.30;99.90
21787;DHT22;11055;50.870;4.316;2023-07-30T13:32:34;22.50;99.90
21787;DHT22;11055;50.870;4.316;2023-07-30T13:34:59;22.50;99.90
21787;DHT22;11055;50.870;4.316;2023-07-30T13:37:25;22.50;99.90
21787;DHT22;11055;50.870;4.316;2023-07-30T13:39:51;22.50;99.90
21787;DHT22;11055;50.870;4.316;2023-07-30T13:42:16;22.50;99.90
21787;DHT22;11055;50.870;4.316;2023-07-30T13:44:42;22.40;99.90
21787;DHT22;11055;50.870;4.316;2023-07-30T13:47:08;22.30;99.90
21787;DHT22;11055;50.870;4.316;2023-07-30T13:49:34;22.30;99.90
21787;DHT22;11055;50.870;4.316;2023-07-30T13:51:59;22.40;99.90
21787;DHT22;11055;50.870;4.316;2023-07-30T13:54:25;22.20;99.90
21787;DHT22;11055;50.870;4.316;2023-07-30T13:56:50;22.20;99.90
21787;DHT22;11055;50.870;4.316;2023-07-30T13:59:16;22.00;99.90
21787;DHT22;11055;50.870;4.316;2023-07-30T14:01:42;22.00;99.90
21787;DHT22;11055;50.870;4.316;2023-07-30T14:04:07;21.90;99.90
21787;DHT22;11055;50.870;4.316;2023-07-30T14:06:33;22.00;99.90
21787;DHT22;11055;50.870;4.316;2023-07-30T14:08:59;22.10;99.90
21787;DHT22;11055;50.870;4.316;2023-07-30T14:11:26;22.10;99.90
21787;DHT22;11055;50.870;4.316;2023-07-30T14:13:52;22.00;99.90
21787;DHT22;11055;50.870;4.316;2023-07-30T14:16:18;21.90;99.90
21787;DHT22;11055;50.870;4.316;2023-07-30T14:18:43;21.90;99.90
21787;DHT22;11055;50.870;4.316;2023-07-30T14:21:09;21.80;99.90
21787;DHT22;11055;50.870;4.316;2023-07-30T14:23:37;21.80;99.90
21787;DHT22;11055;50.870;4.316;2023-07-30T14:26:03;21.70;99.90
21787;DHT22;11055;50.870;4.316;2023-07-30T14:28:29;21.60;99.90
21787;DHT22;11055;50.870;4.316;2023-07-30T14:30:55;21.70;99.90
21787;DHT22;11055;50.870;4.316;2023-07-30T14:33:20;21.80;99.90
21787;DHT22;11055;50.870;4.316;2023-07-30T14:35:46;21.90;99.90
21787;DHT22;11055;50.870;4.316;2023-07-30T14:38:12;22.00;99.90
21787;DHT22;11055;50.870;4.316;2023-07-30T14:40:38;22.00;99.90
21787;DHT22;11055;50.870;4.316;2023-07-30T14:43:04;21.90;99.90
21787;DHT22;11055;50.870;4.316;2023-07-30T14:45:30;21.70;99.90
21787;DHT22;11055;50.870;4.316;2023-07-30T14:47:55;21.60;99.90
21787;DHT22;11055;50.870;4.316;2023-07-30T14:50:21;21.60;99.90
21787;DHT22;11055;50.870;4.316;2023-07-30T14:52:47;21.60;99.90
21787;DHT22;11055;50.870;4.316;2023-07-30T14:55:12;21.60;99.90
21787;DHT22;11055;50.870;4.316;2023-07-30T14:57:38;21.50;99.90
21787;DHT22;11055;50.870;4.316;2023-07-30T15:00:04;21.50;99.90
21787;DHT22;11055;50.870;4.316;2023-07-30T15:02:30;21.40;99.90
21787;DHT22;11055;50.870;4.316;2023-07-30T15:04:56;21.50;99.90
21787;DHT22;11055;50.870;4.316;2023-07-30T15:07:22;21.40;99.90
21787;DHT22;11055;50.870;4.316;2023-07-30T15:09:53;21.40;99.90
21787;DHT22;11055;50.870;4.316;2023-07-30T15:12:19;21.40;99.90
21787;DHT22;11055;50.870;4.316;2023-07-30T15:14:45;21.20;99.90
21787;DHT22;11055;50.870;4.316;2023-07-30T15:17:10;21.10;99.90
21787;DHT22;11055;50.870;4.316;2023-07-30T15:19:36;21.10;99.90
21787;DHT22;11055;50.870;4.316;2023-07-30T15:22:01;20.90;99.90
21787;DHT22;11055;50.870;4.316;2023-07-30T15:24:28;20.90;99.90
21787;DHT22;11055;50.870;4.316;2023-07-30T15:26:53;20.80;99.90
21787;DHT22;11055;50.870;4.316;2023-07-30T15:29:20;20.70;99.90
21787;DHT22;11055;50.870;4.316;2023-07-30T15:31:49;20.70;99.90
21787;DHT22;11055;50.870;4.316;2023-07-30T15:34:15;20.60;99.90